createdAt,value
2019-02-19T00:01:16.417Z,33.27
2019-02-19T00:03:43.728Z,33.13
2019-02-19T00:06:10.757Z,33.04
2019-02-19T00:08:38.817Z,32.95
2019-02-19T00:11:06.108Z,32.92
2019-02-19T00:13:33.113Z,32.91
2019-02-19T00:16:00.114Z,32.92
2019-02-19T00:18:27.085Z,32.91
2019-02-19T00:20:54.101Z,32.98
2019-02-19T00:23:21.457Z,33.10
2019-02-19T00:25:48.824Z,33.11
2019-02-19T00:28:16.181Z,33.01
2019-02-19T00:30:43.524Z,32.92
2019-02-19T00:33:10.505Z,32.87
2019-02-19T00:35:37.490Z,32.88
2019-02-19T00:38:06.294Z,32.88
2019-02-19T00:40:33.136Z,32.87
2019-02-19T00:43:00.497Z,32.82
2019-02-19T00:45:27.536Z,32.79
2019-02-19T00:47:54.534Z,33.15
2019-02-19T00:50:22.567Z,33.37
2019-02-19T00:52:49.573Z,33.31
2019-02-19T00:55:16.574Z,33.28
2019-02-19T00:57:43.591Z,33.14
2019-02-19T01:00:10.596Z,33.12
2019-02-19T01:02:37.576Z,33.28
2019-02-19T01:05:04.553Z,33.24
2019-02-19T01:07:31.534Z,33.29
2019-02-19T01:09:58.850Z,33.26
2019-02-19T01:12:26.092Z,33.48
2019-02-19T01:14:53.089Z,33.49
2019-02-19T01:17:21.027Z,33.57
2019-02-19T01:19:48.345Z,33.75
2019-02-19T01:22:15.716Z,33.79
2019-02-19T01:24:43.069Z,33.80
2019-02-19T01:27:10.029Z,33.77
2019-02-19T01:29:37.001Z,33.69
2019-02-19T01:32:03.963Z,33.54
2019-02-19T01:34:30.892Z,33.44
2019-02-19T01:36:57.836Z,33.37
2019-02-19T01:39:24.785Z,33.49
2019-02-19T01:41:52.134Z,33.57
2019-02-19T01:44:19.436Z,33.61
2019-02-19T01:46:46.289Z,33.83
2019-02-19T01:49:13.833Z,33.99
2019-02-19T01:51:40.738Z,34.14
2019-02-19T01:54:07.721Z,34.24
2019-02-19T01:56:34.765Z,34.29
2019-02-19T01:59:01.625Z,34.25
2019-02-19T02:01:28.557Z,34.48
2019-02-19T02:03:55.832Z,34.74
2019-02-19T02:06:23.080Z,34.82
2019-02-19T02:08:49.966Z,34.83
2019-02-19T02:11:16.845Z,34.88
2019-02-19T02:13:44.101Z,34.77
2019-02-19T02:16:11.377Z,34.85
2019-02-19T02:18:38.633Z,35.00
2019-02-19T02:21:05.577Z,35.02
2019-02-19T02:23:32.473Z,35.16
2019-02-19T02:25:59.365Z,35.04
2019-02-19T02:28:26.261Z,34.94
2019-02-19T02:30:53.249Z,34.82
2019-02-19T02:33:20.136Z,34.69
2019-02-19T02:35:47.082Z,34.66
2019-02-19T02:38:13.964Z,34.59
2019-02-19T02:40:41.274Z,34.83
2019-02-19T02:43:08.223Z,35.01
2019-02-19T02:45:35.187Z,35.13
2019-02-19T02:48:02.507Z,35.22
2019-02-19T02:50:29.393Z,35.25
2019-02-19T02:52:56.354Z,35.30
2019-02-19T02:55:23.642Z,35.41
2019-02-19T02:57:50.983Z,35.53
2019-02-19T03:00:17.934Z,35.66
2019-02-19T03:02:44.807Z,35.75
2019-02-19T03:05:12.044Z,35.75
2019-02-19T03:07:38.960Z,35.67
2019-02-19T03:10:05.853Z,35.52
2019-02-19T03:12:33.173Z,35.52
2019-02-19T03:15:00.433Z,35.49
2019-02-19T03:17:27.662Z,35.51
2019-02-19T03:19:54.561Z,35.42
2019-02-19T03:22:21.833Z,35.33
2019-02-19T03:24:49.129Z,35.18
2019-02-19T03:27:16.092Z,34.96
2019-02-19T03:29:43.329Z,34.85
2019-02-19T03:32:10.761Z,34.87
2019-02-19T03:34:37.858Z,34.75
2019-02-19T03:37:04.809Z,34.61
2019-02-19T03:39:31.750Z,34.53
2019-02-19T03:41:59.071Z,34.51
2019-02-19T03:44:25.947Z,34.55
2019-02-19T03:46:53.123Z,34.70
2019-02-19T03:49:20.015Z,34.87
2019-02-19T03:51:46.975Z,34.97
2019-02-19T03:54:13.927Z,35.00
2019-02-19T03:56:40.861Z,35.04
2019-02-19T03:59:08.215Z,35.13
2019-02-19T04:01:35.176Z,35.26
2019-02-19T04:04:02.493Z,35.31
2019-02-19T04:06:29.399Z,35.29
2019-02-19T04:08:56.331Z,35.23
2019-02-19T04:11:23.356Z,35.10
2019-02-19T04:13:50.326Z,34.99
2019-02-19T04:16:21.368Z,34.92
2019-02-19T04:18:45.797Z,34.92
2019-02-19T04:21:12.774Z,34.92
2019-02-19T04:23:40.660Z,34.87
2019-02-19T04:26:07.626Z,34.81
2019-02-19T04:28:34.937Z,34.72
2019-02-19T04:31:01.926Z,34.71
2019-02-19T04:33:28.999Z,34.78
2019-02-19T04:35:56.273Z,34.65
2019-02-19T04:38:23.699Z,34.62
2019-02-19T04:40:51.142Z,34.54
2019-02-19T04:43:18.221Z,34.63
2019-02-19T04:45:45.197Z,34.78
2019-02-19T04:48:12.430Z,34.96
2019-02-19T04:50:39.350Z,35.13
2019-02-19T04:53:06.287Z,35.21
2019-02-19T04:55:33.599Z,35.34
2019-02-19T04:58:00.584Z,35.31
2019-02-19T05:00:27.494Z,35.22
2019-02-19T05:02:54.391Z,35.11
2019-02-19T05:05:21.561Z,35.02
2019-02-19T05:07:48.592Z,35.19
2019-02-19T05:10:15.887Z,35.27
2019-02-19T05:12:47.099Z,35.45
2019-02-19T05:15:15.682Z,35.44
2019-02-19T05:17:42.776Z,35.45
2019-02-19T05:20:10.503Z,35.34
2019-02-19T05:22:37.775Z,35.44
2019-02-19T05:25:05.081Z,35.59
2019-02-19T05:27:32.423Z,35.68
2019-02-19T05:29:59.761Z,35.63
2019-02-19T05:32:26.650Z,35.50
2019-02-19T05:34:53.841Z,35.54
2019-02-19T05:37:21.066Z,35.74
2019-02-19T05:39:47.967Z,35.96
2019-02-19T05:42:15.273Z,36.05
2019-02-19T05:44:42.186Z,35.99
2019-02-19T05:47:09.090Z,35.99
2019-02-19T05:49:36.085Z,35.97
2019-02-19T05:52:03.043Z,35.93
2019-02-19T05:54:29.987Z,36.04
2019-02-19T05:56:56.991Z,36.08
2019-02-19T05:59:23.954Z,36.31
2019-02-19T06:01:50.954Z,36.50
2019-02-19T06:04:17.905Z,36.74
2019-02-19T06:06:45.213Z,37.06
2019-02-19T06:09:12.159Z,37.19
2019-02-19T06:11:39.023Z,37.10
2019-02-19T06:14:06.077Z,37.10
2019-02-19T06:16:33.346Z,37.18
2019-02-19T06:19:00.557Z,37.13
2019-02-19T06:21:27.442Z,36.99
2019-02-19T06:23:54.504Z,37.04
2019-02-19T06:26:21.554Z,37.23
2019-02-19T06:28:48.459Z,37.28
2019-02-19T06:31:15.739Z,37.37
2019-02-19T06:33:42.699Z,37.43
2019-02-19T06:36:09.640Z,37.38
2019-02-19T06:38:36.597Z,37.40
2019-02-19T06:41:03.458Z,37.40
2019-02-19T06:43:31.306Z,37.47
2019-02-19T06:45:58.533Z,37.45
2019-02-19T06:48:25.795Z,37.46
2019-02-19T06:50:53.024Z,37.24
2019-02-19T06:53:20.289Z,37.31
2019-02-19T06:55:47.548Z,37.29
2019-02-19T06:58:14.796Z,37.30
2019-02-19T07:00:41.695Z,37.17
2019-02-19T07:03:08.654Z,37.07
2019-02-19T07:05:35.957Z,37.04
2019-02-19T07:08:03.200Z,36.85
2019-02-19T07:10:30.220Z,36.78
2019-02-19T07:12:57.217Z,36.63
2019-02-19T07:15:24.173Z,36.46
2019-02-19T07:17:51.469Z,36.35
2019-02-19T07:20:18.643Z,36.22
2019-02-19T07:22:45.583Z,36.08
2019-02-19T07:25:12.836Z,36.02
2019-02-19T07:27:39.812Z,36.08
2019-02-19T07:30:06.754Z,36.21
2019-02-19T07:32:33.692Z,36.20
2019-02-19T07:35:00.615Z,36.09
2019-02-19T07:37:27.591Z,35.99
2019-02-19T07:39:54.833Z,35.91
2019-02-19T07:42:21.756Z,35.83
2019-02-19T07:44:48.709Z,35.71
2019-02-19T07:47:24.266Z,35.65
2019-02-19T07:49:44.433Z,35.58
2019-02-19T07:52:11.593Z,35.45
2019-02-19T07:54:38.832Z,35.41
2019-02-19T07:57:05.985Z,35.47
2019-02-19T07:59:33.555Z,35.44
2019-02-19T08:02:00.794Z,35.34
2019-02-19T08:04:27.723Z,35.26
2019-02-19T08:06:54.623Z,35.11
2019-02-19T08:09:21.572Z,35.00
2019-02-19T08:11:48.815Z,34.87
2019-02-19T08:14:15.736Z,34.55
2019-02-19T08:16:42.992Z,34.24
2019-02-19T08:19:09.912Z,33.85
2019-02-19T08:21:36.876Z,33.44
2019-02-19T08:24:03.818Z,33.09
2019-02-19T08:26:30.687Z,32.94
2019-02-19T08:29:11.301Z,32.81
2019-02-19T08:31:26.187Z,32.73
2019-02-19T08:33:53.171Z,32.63
2019-02-19T08:36:20.106Z,32.48
2019-02-19T08:38:47.350Z,32.36
2019-02-19T08:41:14.277Z,32.25
2019-02-19T08:43:41.556Z,32.21
2019-02-19T08:46:08.784Z,32.22
2019-02-19T08:48:35.770Z,32.08
2019-02-19T08:51:03.004Z,31.95
2019-02-19T08:53:30.180Z,31.86
2019-02-19T08:55:57.142Z,31.70
2019-02-19T08:58:24.457Z,31.71
2019-02-19T09:00:51.420Z,31.75
2019-02-19T09:03:18.751Z,31.64
2019-02-19T09:05:45.914Z,31.61
2019-02-19T09:08:12.831Z,31.61
2019-02-19T09:10:39.800Z,31.56
2019-02-19T09:13:06.740Z,31.52
2019-02-19T09:15:33.683Z,31.52
2019-02-19T09:18:00.831Z,31.50
2019-02-19T09:20:28.187Z,31.39
2019-02-19T09:22:55.148Z,31.36
2019-02-19T09:25:22.137Z,31.36
2019-02-19T09:27:49.484Z,31.38
2019-02-19T09:30:16.397Z,31.41
2019-02-19T09:32:43.308Z,31.42
2019-02-19T09:35:10.593Z,31.39
2019-02-19T09:37:37.469Z,31.35
2019-02-19T09:40:04.692Z,31.41
2019-02-19T09:42:31.565Z,31.33
2019-02-19T09:44:59.546Z,31.36
2019-02-19T09:47:26.854Z,31.38
2019-02-19T09:49:53.829Z,31.35
2019-02-19T09:52:20.766Z,31.36
2019-02-19T09:54:47.982Z,31.33
2019-02-19T09:57:15.434Z,31.32
2019-02-19T09:59:42.605Z,31.33
2019-02-19T10:02:09.559Z,31.34
2019-02-19T10:04:36.909Z,31.29
2019-02-19T10:07:04.165Z,31.18
2019-02-19T10:09:31.033Z,31.15
2019-02-19T10:11:57.966Z,31.09
2019-02-19T10:14:24.872Z,31.30
2019-02-19T10:16:51.762Z,32.14
2019-02-19T10:19:18.694Z,32.13
2019-02-19T10:21:45.805Z,32.03
2019-02-19T10:24:12.712Z,32.13
2019-02-19T10:26:40.761Z,32.13
2019-02-19T10:29:07.749Z,32.12
2019-02-19T10:31:34.618Z,32.31
2019-02-19T10:34:01.874Z,32.37
2019-02-19T10:36:28.763Z,32.37
2019-02-19T10:38:56.068Z,32.19
2019-02-19T10:41:22.956Z,32.17
2019-02-19T10:43:49.929Z,32.04
2019-02-19T10:46:16.871Z,31.93
2019-02-19T10:48:43.794Z,31.91
2019-02-19T10:51:10.753Z,31.65
2019-02-19T10:53:37.714Z,31.43
2019-02-19T10:56:04.745Z,31.29
2019-02-19T10:58:32.093Z,31.25
2019-02-19T11:00:59.030Z,31.24
2019-02-19T11:03:25.950Z,31.31
2019-02-19T11:05:52.844Z,31.35
2019-02-19T11:08:20.150Z,31.32
2019-02-19T11:10:47.038Z,31.32
2019-02-19T11:13:14.265Z,31.27
2019-02-19T11:15:41.504Z,31.26
2019-02-19T11:18:08.438Z,31.29
2019-02-19T11:20:35.310Z,31.21
2019-02-19T11:23:02.193Z,31.29
2019-02-19T11:25:29.092Z,30.96
2019-02-19T11:27:56.045Z,30.95
2019-02-19T11:30:23.309Z,30.86
2019-02-19T11:32:50.249Z,30.78
2019-02-19T11:35:17.120Z,30.75
2019-02-19T11:37:44.234Z,30.65
2019-02-19T11:40:11.141Z,30.64
2019-02-19T11:42:38.119Z,30.54
2019-02-19T11:45:05.372Z,30.52
2019-02-19T11:47:32.255Z,30.58
2019-02-19T11:49:59.598Z,30.61
2019-02-19T11:52:26.917Z,30.73
2019-02-19T11:54:53.895Z,30.71
2019-02-19T11:57:21.214Z,30.75
2019-02-19T11:59:48.460Z,30.85
2019-02-19T12:02:15.339Z,30.86
2019-02-19T12:04:42.668Z,30.97
2019-02-19T12:07:09.625Z,31.03
2019-02-19T12:09:36.586Z,31.06
2019-02-19T12:12:03.466Z,31.16
2019-02-19T12:14:30.416Z,31.26
2019-02-19T12:16:57.398Z,31.28
2019-02-19T12:19:24.326Z,31.33
2019-02-19T12:21:51.497Z,31.20
2019-02-19T12:24:18.394Z,31.35
2019-02-19T12:26:45.595Z,31.34
2019-02-19T12:29:12.544Z,31.36
2019-02-19T12:31:39.554Z,31.45
2019-02-19T12:34:06.559Z,31.52
2019-02-19T12:36:33.881Z,31.56
2019-02-19T12:39:01.182Z,31.61
2019-02-19T12:41:30.311Z,31.60
2019-02-19T12:43:59.271Z,31.64
2019-02-19T12:46:26.173Z,31.74
2019-02-19T12:48:54.858Z,31.61
2019-02-19T12:51:26.362Z,31.75
2019-02-19T12:53:50.555Z,31.65
2019-02-19T12:56:17.736Z,31.60
2019-02-19T12:58:44.700Z,31.78
2019-02-19T13:01:11.688Z,31.98
2019-02-19T13:03:38.629Z,32.37
2019-02-19T13:06:05.822Z,32.64
2019-02-19T13:08:33.319Z,32.99
2019-02-19T13:11:00.301Z,33.34
2019-02-19T13:13:27.610Z,33.64
2019-02-19T13:15:54.566Z,33.85
2019-02-19T13:18:21.518Z,34.01
2019-02-19T13:20:48.396Z,34.07
2019-02-19T13:23:16.459Z,34.13
2019-02-19T13:25:43.439Z,34.30
2019-02-19T13:28:10.695Z,34.38
2019-02-19T13:30:37.939Z,34.57
2019-02-19T13:33:04.887Z,34.60
2019-02-19T13:35:31.805Z,34.74
2019-02-19T13:37:58.771Z,34.82
2019-02-19T13:40:26.027Z,34.92
2019-02-19T13:42:52.906Z,34.98
2019-02-19T13:45:19.836Z,35.07
2019-02-19T13:47:47.109Z,35.27
2019-02-19T13:50:14.336Z,35.31
2019-02-19T13:52:41.232Z,35.32
2019-02-19T13:55:08.124Z,35.35
2019-02-19T13:57:35.377Z,35.41
2019-02-19T14:00:02.347Z,35.51
2019-02-19T14:02:30.003Z,35.68
2019-02-19T14:04:57.349Z,36.01
2019-02-19T14:07:24.296Z,36.26
2019-02-19T14:09:51.260Z,36.44
2019-02-19T14:12:18.195Z,36.60
2019-02-19T14:14:45.414Z,36.88
2019-02-19T14:17:12.314Z,36.96
2019-02-19T14:19:39.289Z,37.05
2019-02-19T14:22:06.580Z,37.16
2019-02-19T14:24:33.934Z,37.24
2019-02-19T14:27:01.205Z,37.37
2019-02-19T14:29:28.173Z,37.56
2019-02-19T14:31:55.393Z,37.71
2019-02-19T14:34:22.638Z,37.74
2019-02-19T14:36:49.881Z,37.80
2019-02-19T14:39:16.769Z,37.91
2019-02-19T14:41:43.992Z,38.04
2019-02-19T14:44:10.940Z,38.11
2019-02-19T14:46:38.170Z,38.18
2019-02-19T14:49:05.041Z,38.30
2019-02-19T14:51:32.014Z,38.45
2019-02-19T14:53:59.209Z,38.62
2019-02-19T14:56:26.242Z,38.88
2019-02-19T14:58:53.224Z,39.12
2019-02-19T15:01:20.109Z,39.26
2019-02-19T15:03:47.066Z,39.32
2019-02-19T15:06:14.368Z,39.32
2019-02-19T15:08:42.374Z,39.28
2019-02-19T15:11:10.177Z,39.27
2019-02-19T15:13:37.145Z,39.46
2019-02-19T15:16:04.104Z,39.53
2019-02-19T15:18:30.973Z,39.57
2019-02-19T15:20:57.881Z,39.64
2019-02-19T15:23:32.913Z,39.64
2019-02-19T15:25:59.912Z,39.63
2019-02-19T15:28:27.212Z,39.62
2019-02-19T15:30:54.189Z,39.58
2019-02-19T15:33:21.430Z,39.48
2019-02-19T15:35:48.308Z,39.41
2019-02-19T15:38:15.229Z,39.22
2019-02-19T15:40:42.454Z,39.11
2019-02-19T15:43:09.399Z,39.13
2019-02-19T15:45:36.349Z,39.35
2019-02-19T15:48:03.248Z,39.06
2019-02-19T15:50:30.545Z,39.01
2019-02-19T15:52:57.549Z,38.68
2019-02-19T15:55:24.544Z,38.52
2019-02-19T15:57:51.481Z,38.31
2019-02-19T16:00:18.630Z,38.12
2019-02-19T16:02:45.911Z,37.90
2019-02-19T16:05:12.875Z,37.75
2019-02-19T16:07:40.186Z,37.66
2019-02-19T16:10:07.438Z,37.64
2019-02-19T16:12:34.726Z,37.62
2019-02-19T16:15:02.275Z,37.62
2019-02-19T16:17:29.401Z,37.61
2019-02-19T16:19:57.281Z,37.62
2019-02-19T16:22:24.404Z,37.70
2019-02-19T16:24:51.292Z,37.64
2019-02-19T16:27:18.513Z,37.64
2019-02-19T16:29:45.403Z,37.62
2019-02-19T16:32:12.342Z,37.62
2019-02-19T16:34:39.241Z,37.66
2019-02-19T16:37:06.513Z,37.70
2019-02-19T16:39:33.490Z,37.71
2019-02-19T16:42:00.465Z,37.66
2019-02-19T16:44:27.762Z,37.60
2019-02-19T16:46:54.807Z,37.57
2019-02-19T16:49:22.076Z,37.57
2019-02-19T16:51:49.415Z,37.55
2019-02-19T16:54:16.410Z,37.57
2019-02-19T16:56:43.381Z,37.60
2019-02-19T16:59:10.651Z,37.57
2019-02-19T17:01:37.612Z,37.64
2019-02-19T17:04:04.935Z,37.64
2019-02-19T17:06:31.960Z,37.65
2019-02-19T17:09:00.453Z,37.65
2019-02-19T17:11:29.230Z,37.56
2019-02-19T17:13:58.679Z,37.59
2019-02-19T17:16:25.801Z,37.54
2019-02-19T17:18:52.758Z,37.58
2019-02-19T17:21:20.028Z,37.54
2019-02-19T17:23:46.982Z,37.50
2019-02-19T17:26:14.842Z,37.52
2019-02-19T17:28:43.167Z,37.51
2019-02-19T17:31:10.147Z,37.54
2019-02-19T17:33:37.421Z,37.49
2019-02-19T17:36:04.361Z,37.49
2019-02-19T17:38:31.614Z,37.47
2019-02-19T17:40:58.498Z,37.51
2019-02-19T17:43:25.821Z,37.55
2019-02-19T17:45:52.722Z,37.61
2019-02-19T17:48:20.022Z,37.61
2019-02-19T17:50:46.908Z,37.61
2019-02-19T17:53:14.905Z,37.63
2019-02-19T17:55:42.393Z,37.62
2019-02-19T17:58:09.745Z,37.68
2019-02-19T18:00:36.885Z,37.69
2019-02-19T18:03:03.774Z,37.67
2019-02-19T18:05:31.898Z,37.61
2019-02-19T18:07:58.796Z,37.60
2019-02-19T18:10:26.116Z,37.63
2019-02-19T18:12:53.481Z,37.67
2019-02-19T18:15:20.429Z,37.66
2019-02-19T18:17:47.654Z,37.65
2019-02-19T18:20:14.618Z,37.64
2019-02-19T18:22:41.573Z,37.66
2019-02-19T18:25:08.805Z,37.60
2019-02-19T18:27:35.765Z,37.60
2019-02-19T18:30:03.005Z,37.59
2019-02-19T18:32:31.792Z,37.58
2019-02-19T18:34:58.765Z,37.58
2019-02-19T18:37:25.997Z,37.55
2019-02-19T18:39:53.339Z,37.53
2019-02-19T18:42:20.205Z,37.48
2019-02-19T18:44:47.090Z,37.52
2019-02-19T18:47:14.332Z,37.44
2019-02-19T18:49:42.909Z,37.43
2019-02-19T18:52:09.819Z,37.44
2019-02-19T18:54:36.781Z,37.41
2019-02-19T18:57:03.694Z,37.34
2019-02-19T18:59:30.628Z,37.42
2019-02-19T19:01:57.601Z,37.47
2019-02-19T19:04:24.573Z,37.46
2019-02-19T19:06:51.560Z,37.45
2019-02-19T19:09:18.496Z,37.43
2019-02-19T19:11:45.787Z,37.40
2019-02-19T19:14:12.689Z,37.34
2019-02-19T19:16:39.805Z,37.29
2019-02-19T19:19:08.051Z,37.29
2019-02-19T19:21:35.319Z,37.23
2019-02-19T19:24:02.273Z,37.17
2019-02-19T19:26:29.271Z,37.16
2019-02-19T19:28:56.569Z,37.15
2019-02-19T19:31:32.945Z,37.10
2019-02-19T19:33:52.738Z,37.00
2019-02-19T19:36:20.046Z,36.97
2019-02-19T19:38:48.327Z,36.98
2019-02-19T19:41:15.731Z,36.98
2019-02-19T19:43:44.077Z,36.93
2019-02-19T19:46:11.127Z,36.91
2019-02-19T19:48:38.480Z,36.93
2019-02-19T19:51:05.531Z,36.95
2019-02-19T19:53:32.489Z,36.86
2019-02-19T19:55:59.463Z,36.75
2019-02-19T19:58:26.371Z,36.73
2019-02-19T20:00:53.331Z,36.68
2019-02-19T20:03:20.294Z,36.66
2019-02-19T20:05:47.312Z,36.65
2019-02-19T20:08:14.562Z,36.67
2019-02-19T20:10:41.486Z,36.70
2019-02-19T20:13:08.791Z,36.70
2019-02-19T20:15:36.189Z,36.58
2019-02-19T20:18:03.360Z,36.49
2019-02-19T20:20:30.485Z,36.41
2019-02-19T20:22:57.718Z,36.42
2019-02-19T20:25:24.929Z,36.43
2019-02-19T20:27:53.318Z,36.44
2019-02-19T20:30:20.360Z,36.35
2019-02-19T20:32:47.355Z,36.32
2019-02-19T20:35:14.871Z,36.24
2019-02-19T20:37:41.867Z,36.14
2019-02-19T20:40:10.064Z,35.96
2019-02-19T20:42:37.726Z,36.02
2019-02-19T20:45:04.993Z,36.00
2019-02-19T20:47:33.600Z,35.95
2019-02-19T20:50:00.941Z,35.91
2019-02-19T20:52:28.788Z,35.88
2019-02-19T20:54:55.780Z,35.78
2019-02-19T20:57:23.398Z,35.71
2019-02-19T20:59:50.683Z,35.70
2019-02-19T21:02:18.032Z,35.68
2019-02-19T21:04:45.149Z,35.58
2019-02-19T21:07:12.135Z,35.51
2019-02-19T21:09:43.969Z,35.49
2019-02-19T21:12:08.006Z,35.47
2019-02-19T21:14:35.647Z,35.47
2019-02-19T21:17:02.967Z,35.49
2019-02-19T21:19:30.158Z,35.44
2019-02-19T21:21:57.359Z,35.39
2019-02-19T21:24:24.709Z,35.35
2019-02-19T21:26:52.176Z,35.39
2019-02-19T21:29:19.643Z,35.38
2019-02-19T21:31:46.600Z,35.37
2019-02-19T21:34:13.857Z,35.38
2019-02-19T21:36:41.209Z,35.35
2019-02-19T21:39:08.168Z,35.35
2019-02-19T21:41:37.048Z,35.37
2019-02-19T21:44:04.381Z,35.35
2019-02-19T21:46:31.517Z,35.42
2019-02-19T21:48:58.397Z,35.42
2019-02-19T21:51:25.261Z,35.43
2019-02-19T21:53:52.157Z,35.43
2019-02-19T21:56:19.412Z,35.44
2019-02-19T21:58:46.356Z,35.41
2019-02-19T22:01:13.610Z,35.39
2019-02-19T22:03:40.880Z,35.37
2019-02-19T22:06:08.321Z,35.42
2019-02-19T22:08:35.198Z,35.46
2019-02-19T22:11:02.082Z,35.42
2019-02-19T22:13:29.380Z,35.38
2019-02-19T22:15:57.395Z,35.35
2019-02-19T22:18:24.582Z,35.36
2019-02-19T22:20:51.854Z,35.37
2019-02-19T22:23:18.828Z,35.37
2019-02-19T22:25:45.785Z,35.38
2019-02-19T22:28:12.774Z,35.36
2019-02-19T22:30:39.716Z,35.33
2019-02-19T22:33:06.601Z,35.30
2019-02-19T22:35:33.495Z,35.32
2019-02-19T22:38:00.777Z,35.29
2019-02-19T22:40:27.735Z,35.25
2019-02-19T22:42:54.675Z,35.21
2019-02-19T22:45:21.613Z,35.20
2019-02-19T22:47:53.424Z,35.17
2019-02-19T22:50:17.448Z,35.19
2019-02-19T22:52:44.618Z,35.24
2019-02-19T22:55:11.490Z,35.24
2019-02-19T22:57:38.676Z,35.27
2019-02-19T23:00:05.935Z,35.28
2019-02-19T23:02:34.744Z,35.28
2019-02-19T23:05:01.773Z,35.33
2019-02-19T23:07:29.003Z,35.37
2019-02-19T23:09:56.171Z,35.38
2019-02-19T23:12:23.343Z,35.42
2019-02-19T23:14:50.590Z,35.47
2019-02-19T23:17:17.852Z,35.46
2019-02-19T23:19:44.824Z,35.43
2019-02-19T23:22:12.140Z,35.41
2019-02-19T23:24:39.296Z,35.48
2019-02-19T23:27:06.532Z,35.52
2019-02-19T23:29:33.444Z,35.48
2019-02-19T23:32:00.740Z,35.44
2019-02-19T23:34:27.711Z,35.41
2019-02-19T23:36:54.926Z,35.42
2019-02-19T23:39:21.837Z,35.45
2019-02-19T23:41:48.722Z,35.42
2019-02-19T23:44:15.637Z,35.45
2019-02-19T23:46:43.981Z,35.39
2019-02-19T23:49:11.049Z,35.32
2019-02-19T23:51:38.262Z,35.35
2019-02-19T23:54:05.526Z,35.36
2019-02-19T23:56:32.754Z,35.37
2019-02-19T23:58:59.673Z,35.41
